sensor_id;sensor_type;location;lat;lon;timestamp;pressure;altitude;pressure_sealevel;temperature;humidity
57232;BME280;43488;46.934;8.276;2023-07-31T00:00:46;96700.97;;;18.37;85.65
57232;BME280;43488;46.934;8.276;2023-07-31T00:03:18;96695.16;;;18.40;85.51
57232;BME280;43488;46.934;8.276;2023-07-31T00:05:45;96695.09;;;18.35;85.57
57232;BME280;43488;46.934;8.276;2023-07-31T00:08:12;96691.06;;;18.33;84.03
57232;BME280;43488;46.934;8.276;2023-07-31T00:10:39;96694.25;;;18.30;85.05
57232;BME280;43488;46.934;8.276;2023-07-31T00:13:07;96690.09;;;18.17;87.15
57232;BME280;43488;46.934;8.276;2023-07-31T00:15:35;96682.00;;;18.07;88.51
57232;BME280;43488;46.934;8.276;2023-07-31T00:18:02;96679.31;;;18.02;88.48
57232;BME280;43488;46.934;8.276;2023-07-31T00:20:30;96677.50;;;18.07;87.98
57232;BME280;43488;46.934;8.276;2023-07-31T00:22:58;96675.63;;;18.08;88.03
57232;BME280;43488;46.934;8.276;2023-07-31T00:25:25;96677.50;;;18.07;88.10
57232;BME280;43488;46.934;8.276;2023-07-31T00:27:52;96666.28;;;18.05;88.24
57232;BME280;43488;46.934;8.276;2023-07-31T00:30:19;96670.19;;;17.98;88.34
57232;BME280;43488;46.934;8.276;2023-07-31T00:32:49;96682.16;;;17.95;89.03
57232;BME280;43488;46.934;8.276;2023-07-31T00:35:16;96680.81;;;17.93;88.12
57232;BME280;43488;46.934;8.276;2023-07-31T00:37:47;96679.69;;;17.88;85.99
57232;BME280;43488;46.934;8.276;2023-07-31T00:40:14;96687.13;;;17.86;86.55
57232;BME280;43488;46.934;8.276;2023-07-31T00:42:41;96684.13;;;17.61;89.09
57232;BME280;43488;46.934;8.276;2023-07-31T00:45:11;96682.25;;;17.61;88.76
57232;BME280;43488;46.934;8.276;2023-07-31T00:47:41;96681.19;;;17.62;89.57
57232;BME280;43488;46.934;8.276;2023-07-31T00:50:09;96681.06;;;17.52;90.14
57232;BME280;43488;46.934;8.276;2023-07-31T00:52:36;96676.44;;;17.43;91.71
57232;BME280;43488;46.934;8.276;2023-07-31T00:55:04;96679.63;;;17.45;92.21
57232;BME280;43488;46.934;8.276;2023-07-31T00:57:32;96684.00;;;17.51;92.16
57232;BME280;43488;46.934;8.276;2023-07-31T01:00:00;96681.03;;;17.47;91.65
57232;BME280;43488;46.934;8.276;2023-07-31T01:02:28;96679.63;;;17.45;90.77
57232;BME280;43488;46.934;8.276;2023-07-31T01:04:55;96678.38;;;17.47;89.85
57232;BME280;43488;46.934;8.276;2023-07-31T01:07:44;96682.88;;;17.47;90.10
57232;BME280;43488;46.934;8.276;2023-07-31T01:10:28;96677.31;;;17.48;89.90
57232;BME280;43488;46.934;8.276;2023-07-31T01:12:57;96680.78;;;17.49;90.54
57232;BME280;43488;46.934;8.276;2023-07-31T01:15:25;96682.13;;;17.51;90.31
57232;BME280;43488;46.934;8.276;2023-07-31T01:17:52;96671.78;;;17.33;91.68
57232;BME280;43488;46.934;8.276;2023-07-31T01:20:25;96669.66;;;17.35;92.01
57232;BME280;43488;46.934;8.276;2023-07-31T01:23:50;96673.56;;;17.27;92.29
57232;BME280;43488;46.934;8.276;2023-07-31T01:26:19;96657.16;;;17.14;93.30
57232;BME280;43488;46.934;8.276;2023-07-31T01:31:30;96660.38;;;17.16;92.30
57232;BME280;43488;46.934;8.276;2023-07-31T01:34:00;96659.25;;;17.12;92.13
57232;BME280;43488;46.934;8.276;2023-07-31T01:36:30;96659.50;;;17.10;92.29
57232;BME280;43488;46.934;8.276;2023-07-31T01:39:01;96655.78;;;17.11;92.70
57232;BME280;43488;46.934;8.276;2023-07-31T01:41:28;96651.59;;;17.15;92.10
57232;BME280;43488;46.934;8.276;2023-07-31T01:43:56;96662.00;;;17.00;93.03
57232;BME280;43488;46.934;8.276;2023-07-31T01:46:23;96655.81;;;16.94;93.56
57232;BME280;43488;46.934;8.276;2023-07-31T01:48:50;96653.56;;;16.86;94.41
57232;BME280;43488;46.934;8.276;2023-07-31T01:51:18;96654.22;;;16.93;94.53
57232;BME280;43488;46.934;8.276;2023-07-31T01:53:45;96639.31;;;16.92;94.42
57232;BME280;43488;46.934;8.276;2023-07-31T01:56:13;96640.31;;;16.91;94.62
57232;BME280;43488;46.934;8.276;2023-07-31T01:58:40;96640.19;;;16.81;95.68
57232;BME280;43488;46.934;8.276;2023-07-31T02:01:08;96624.81;;;16.83;95.92
57232;BME280;43488;46.934;8.276;2023-07-31T02:03:35;96630.84;;;16.78;95.12
57232;BME280;43488;46.934;8.276;2023-07-31T02:06:03;96634.41;;;16.84;93.82
57232;BME280;43488;46.934;8.276;2023-07-31T02:08:30;96633.25;;;16.80;93.38
57232;BME280;43488;46.934;8.276;2023-07-31T02:10:58;96616.75;;;16.78;93.89
57232;BME280;43488;46.934;8.276;2023-07-31T02:13:25;96614.59;;;16.75;94.70
57232;BME280;43488;46.934;8.276;2023-07-31T02:15:53;96620.97;;;16.74;94.82
57232;BME280;43488;46.934;8.276;2023-07-31T02:18:20;96621.00;;;16.62;95.27
57232;BME280;43488;46.934;8.276;2023-07-31T02:20:52;96622.59;;;16.63;94.61
57232;BME280;43488;46.934;8.276;2023-07-31T02:23:20;96617.06;;;16.65;93.97
57232;BME280;43488;46.934;8.276;2023-07-31T02:25:49;96607.41;;;16.59;94.05
57232;BME280;43488;46.934;8.276;2023-07-31T02:28:17;96604.50;;;16.60;93.52
57232;BME280;43488;46.934;8.276;2023-07-31T02:30:45;96612.16;;;16.57;93.58
57232;BME280;43488;46.934;8.276;2023-07-31T02:33:15;96608.19;;;16.59;94.01
57232;BME280;43488;46.934;8.276;2023-07-31T02:35:43;96607.69;;;16.62;94.53
57232;BME280;43488;46.934;8.276;2023-07-31T02:38:10;96615.06;;;16.55;94.62
57232;BME280;43488;46.934;8.276;2023-07-31T02:40:40;96609.50;;;16.57;94.38
57232;BME280;43488;46.934;8.276;2023-07-31T02:43:08;96611.56;;;16.55;94.65
57232;BME280;43488;46.934;8.276;2023-07-31T02:45:36;96606.19;;;16.49;93.71
57232;BME280;43488;46.934;8.276;2023-07-31T02:48:03;96612.31;;;16.50;93.86
57232;BME280;43488;46.934;8.276;2023-07-31T02:50:30;96607.53;;;16.52;95.07
57232;BME280;43488;46.934;8.276;2023-07-31T02:53:00;96604.66;;;16.54;94.53
57232;BME280;43488;46.934;8.276;2023-07-31T02:55:27;96611.00;;;16.53;94.75
57232;BME280;43488;46.934;8.276;2023-07-31T02:57:55;96612.56;;;16.48;94.00
57232;BME280;43488;46.934;8.276;2023-07-31T03:00:22;96615.84;;;16.39;95.02
57232;BME280;43488;46.934;8.276;2023-07-31T03:02:50;96623.34;;;16.42;95.76
57232;BME280;43488;46.934;8.276;2023-07-31T03:05:17;96623.88;;;16.44;96.02
57232;BME280;43488;46.934;8.276;2023-07-31T03:07:44;96616.94;;;16.26;97.68
57232;BME280;43488;46.934;8.276;2023-07-31T03:10:12;96613.59;;;16.31;97.51
57232;BME280;43488;46.934;8.276;2023-07-31T03:12:40;96611.88;;;16.25;97.47
57232;BME280;43488;46.934;8.276;2023-07-31T03:15:08;96621.16;;;16.22;97.10
57232;BME280;43488;46.934;8.276;2023-07-31T03:17:35;96618.50;;;16.22;95.81
57232;BME280;43488;46.934;8.276;2023-07-31T03:20:04;96620.84;;;16.18;95.26
57232;BME280;43488;46.934;8.276;2023-07-31T03:22:31;96613.25;;;16.27;95.03
57232;BME280;43488;46.934;8.276;2023-07-31T03:24:59;96619.06;;;16.24;94.86
57232;BME280;43488;46.934;8.276;2023-07-31T03:27:26;96621.22;;;16.10;95.70
57232;BME280;43488;46.934;8.276;2023-07-31T03:29:53;96627.00;;;16.07;95.93
57232;BME280;43488;46.934;8.276;2023-07-31T03:32:21;96619.25;;;16.06;97.35
57232;BME280;43488;46.934;8.276;2023-07-31T03:34:49;96623.78;;;16.05;97.91
57232;BME280;43488;46.934;8.276;2023-07-31T03:37:16;96623.47;;;16.02;97.18
57232;BME280;43488;46.934;8.276;2023-07-31T03:39:43;96630.84;;;16.00;97.76
57232;BME280;43488;46.934;8.276;2023-07-31T03:42:11;96629.72;;;15.96;97.35
57232;BME280;43488;46.934;8.276;2023-07-31T03:44:38;96625.44;;;15.95;97.76
57232;BME280;43488;46.934;8.276;2023-07-31T03:47:06;96629.56;;;16.02;98.52
57232;BME280;43488;46.934;8.276;2023-07-31T03:49:33;96629.81;;;16.01;98.17
57232;BME280;43488;46.934;8.276;2023-07-31T03:52:01;96634.88;;;16.02;98.08
57232;BME280;43488;46.934;8.276;2023-07-31T03:54:28;96643.16;;;16.06;97.05
57232;BME280;43488;46.934;8.276;2023-07-31T03:56:56;96643.97;;;16.06;97.02
57232;BME280;43488;46.934;8.276;2023-07-31T03:59:23;96652.28;;;16.10;97.17
57232;BME280;43488;46.934;8.276;2023-07-31T04:01:50;96648.47;;;16.06;96.41
57232;BME280;43488;46.934;8.276;2023-07-31T04:04:17;96649.53;;;16.05;96.29
57232;BME280;43488;46.934;8.276;2023-07-31T04:06:45;96657.16;;;16.01;97.41
57232;BME280;43488;46.934;8.276;2023-07-31T04:09:12;96654.41;;;15.96;98.13
57232;BME280;43488;46.934;8.276;2023-07-31T04:11:39;96658.66;;;15.97;98.29
57232;BME280;43488;46.934;8.276;2023-07-31T04:14:08;96661.00;;;15.93;98.05
57232;BME280;43488;46.934;8.276;2023-07-31T04:16:35;96658.66;;;15.97;98.19
57232;BME280;43488;46.934;8.276;2023-07-31T04:19:04;96668.25;;;15.98;97.20
57232;BME280;43488;46.934;8.276;2023-07-31T04:21:31;96658.91;;;15.96;97.46
57232;BME280;43488;46.934;8.276;2023-07-31T04:23:59;96665.03;;;15.96;97.83
57232;BME280;43488;46.934;8.276;2023-07-31T04:26:27;96662.13;;;15.98;98.56
57232;BME280;43488;46.934;8.276;2023-07-31T04:28:54;96668.59;;;16.02;98.68
57232;BME280;43488;46.934;8.276;2023-07-31T04:31:22;96673.91;;;16.02;98.66
57232;BME280;43488;46.934;8.276;2023-07-31T04:33:50;96671.00;;;16.03;98.70
57232;BME280;43488;46.934;8.276;2023-07-31T04:36:18;96668.44;;;16.08;99.39
57232;BME280;43488;46.934;8.276;2023-07-31T04:38:45;96664.28;;;16.12;99.55
57232;BME280;43488;46.934;8.276;2023-07-31T04:41:12;96666.69;;;16.14;99.98
57232;BME280;43488;46.934;8.276;2023-07-31T04:43:39;96666.38;;;16.10;100.00
57232;BME280;43488;46.934;8.276;2023-07-31T04:46:08;96662.03;;;16.21;99.93
57232;BME280;43488;46.934;8.276;2023-07-31T04:48:35;96654.13;;;16.26;99.29
57232;BME280;43488;46.934;8.276;2023-07-31T04:51:02;96656.78;;;16.26;98.14
57232;BME280;43488;46.934;8.276;2023-07-31T04:53:30;96647.78;;;16.27;97.65
57232;BME280;43488;46.934;8.276;2023-07-31T04:55:57;96659.81;;;16.30;97.68
57232;BME280;43488;46.934;8.276;2023-07-31T04:58:24;96661.31;;;16.26;98.22
57232;BME280;43488;46.934;8.276;2023-07-31T05:00:51;96666.97;;;16.29;98.55
57232;BME280;43488;46.934;8.276;2023-07-31T05:03:19;96664.88;;;16.31;97.89
57232;BME280;43488;46.934;8.276;2023-07-31T05:05:47;96672.28;;;16.29;97.34
57232;BME280;43488;46.934;8.276;2023-07-31T05:08:14;96667.84;;;16.35;97.15
57232;BME280;43488;46.934;8.276;2023-07-31T05:10:41;96652.72;;;16.35;96.80
57232;BME280;43488;46.934;8.276;2023-07-31T05:13:09;96654.91;;;16.38;96.66
57232;BME280;43488;46.934;8.276;2023-07-31T05:15:37;96663.44;;;16.40;96.01
57232;BME280;43488;46.934;8.276;2023-07-31T05:18:05;96674.13;;;16.45;96.02
57232;BME280;43488;46.934;8.276;2023-07-31T05:20:32;96667.56;;;16.48;96.07
57232;BME280;43488;46.934;8.276;2023-07-31T05:22:59;96669.22;;;16.54;96.28
57232;BME280;43488;46.934;8.276;2023-07-31T05:25:27;96678.75;;;16.67;95.74
57232;BME280;43488;46.934;8.276;2023-07-31T05:27:55;96682.81;;;16.69;95.66
57232;BME280;43488;46.934;8.276;2023-07-31T05:30:22;96671.47;;;16.74;97.34
57232;BME280;43488;46.934;8.276;2023-07-31T05:32:50;96674.19;;;16.79;96.86
57232;BME280;43488;46.934;8.276;2023-07-31T05:35:17;96670.56;;;16.85;96.32
57232;BME280;43488;46.934;8.276;2023-07-31T05:37:44;96673.28;;;16.90;95.85
57232;BME280;43488;46.934;8.276;2023-07-31T05:40:12;96675.47;;;16.93;95.21
57232;BME280;43488;46.934;8.276;2023-07-31T05:42:40;96676.84;;;16.96;93.47
57232;BME280;43488;46.934;8.276;2023-07-31T05:45:07;96675.28;;;17.00;92.99
57232;BME280;43488;46.934;8.276;2023-07-31T05:47:35;96676.69;;;17.02;92.45
57232;BME280;43488;46.934;8.276;2023-07-31T05:50:02;96678.28;;;17.03;92.38
57232;BME280;43488;46.934;8.276;2023-07-31T05:52:30;96673.09;;;17.14;92.11
57232;BME280;43488;46.934;8.276;2023-07-31T05:54:57;96666.31;;;17.23;91.71
57232;BME280;43488;46.934;8.276;2023-07-31T05:57:25;96670.34;;;17.25;91.29
57232;BME280;43488;46.934;8.276;2023-07-31T05:59:52;96674.06;;;17.24;90.77
57232;BME280;43488;46.934;8.276;2023-07-31T06:02:21;96666.38;;;17.28;89.61
57232;BME280;43488;46.934;8.276;2023-07-31T06:04:48;96669.91;;;17.33;88.21
57232;BME280;43488;46.934;8.276;2023-07-31T06:07:16;96662.75;;;17.34;88.07
57232;BME280;43488;46.934;8.276;2023-07-31T06:09:43;96656.44;;;17.40;88.44
57232;BME280;43488;46.934;8.276;2023-07-31T06:12:11;96661.91;;;17.50;88.70
57232;BME280;43488;46.934;8.276;2023-07-31T06:14:38;96669.19;;;17.60;88.37
57232;BME280;43488;46.934;8.276;2023-07-31T06:17:05;96669.81;;;17.67;88.95
57232;BME280;43488;46.934;8.276;2023-07-31T06:19:33;96656.34;;;17.74;88.60
57232;BME280;43488;46.934;8.276;2023-07-31T06:22:00;96655.78;;;17.72;88.17
57232;BME280;43488;46.934;8.276;2023-07-31T06:24:28;96656.41;;;17.79;89.41
57232;BME280;43488;46.934;8.276;2023-07-31T06:26:57;96668.66;;;17.80;88.96
57232;BME280;43488;46.934;8.276;2023-07-31T06:29:24;96667.69;;;17.86;88.23
57232;BME280;43488;46.934;8.276;2023-07-31T06:31:51;96666.44;;;17.94;86.96
57232;BME280;43488;46.934;8.276;2023-07-31T06:34:19;96661.69;;;18.01;86.62
57232;BME280;43488;46.934;8.276;2023-07-31T06:36:46;96652.19;;;18.10;86.83
57232;BME280;43488;46.934;8.276;2023-07-31T06:39:16;96651.47;;;18.14;86.90
57232;BME280;43488;46.934;8.276;2023-07-31T06:41:45;96642.66;;;18.14;86.10
57232;BME280;43488;46.934;8.276;2023-07-31T06:44:12;96626.72;;;18.19;86.80
57232;BME280;43488;46.934;8.276;2023-07-31T06:46:39;96619.53;;;18.19;85.61
57232;BME280;43488;46.934;8.276;2023-07-31T06:49:07;96617.47;;;18.27;85.25
57232;BME280;43488;46.934;8.276;2023-07-31T06:51:34;96605.72;;;18.23;84.84
57232;BME280;43488;46.934;8.276;2023-07-31T06:54:03;96604.84;;;18.17;86.14
57232;BME280;43488;46.934;8.276;2023-07-31T06:56:30;96604.09;;;18.22;86.00
57232;BME280;43488;46.934;8.276;2023-07-31T06:58:57;96606.50;;;18.23;86.16
57232;BME280;43488;46.934;8.276;2023-07-31T07:01:24;96609.72;;;18.25;85.20
57232;BME280;43488;46.934;8.276;2023-07-31T07:03:52;96613.78;;;18.33;84.00
57232;BME280;43488;46.934;8.276;2023-07-31T07:06:19;96615.72;;;18.42;83.57
57232;BME280;43488;46.934;8.276;2023-07-31T07:08:47;96611.50;;;18.46;82.85
57232;BME280;43488;46.934;8.276;2023-07-31T07:11:15;96609.16;;;18.55;81.83
57232;BME280;43488;46.934;8.276;2023-07-31T07:13:42;96597.22;;;18.63;80.38
57232;BME280;43488;46.934;8.276;2023-07-31T07:16:10;96598.09;;;18.68;81.06
57232;BME280;43488;46.934;8.276;2023-07-31T07:18:37;96598.72;;;18.81;84.72
57232;BME280;43488;46.934;8.276;2023-07-31T07:21:05;96606.78;;;18.91;83.41
57232;BME280;43488;46.934;8.276;2023-07-31T07:23:33;96594.00;;;18.93;81.33
57232;BME280;43488;46.934;8.276;2023-07-31T07:26:00;96592.97;;;18.99;80.98
57232;BME280;43488;46.934;8.276;2023-07-31T07:28:27;96592.19;;;19.03;75.80
57232;BME280;43488;46.934;8.276;2023-07-31T07:30:55;96586.59;;;19.10;75.82
57232;BME280;43488;46.934;8.276;2023-07-31T07:33:23;96583.44;;;19.13;73.05
57232;BME280;43488;46.934;8.276;2023-07-31T07:35:50;96588.50;;;19.15;69.92
57232;BME280;43488;46.934;8.276;2023-07-31T07:38:17;96590.16;;;19.21;73.29
57232;BME280;43488;46.934;8.276;2023-07-31T07:40:46;96582.44;;;19.29;75.04
57232;BME280;43488;46.934;8.276;2023-07-31T07:43:18;96587.84;;;19.40;76.49
57232;BME280;43488;46.934;8.276;2023-07-31T07:45:45;96585.16;;;19.45;74.96
57232;BME280;43488;46.934;8.276;2023-07-31T07:48:12;96575.06;;;19.52;73.85
57232;BME280;43488;46.934;8.276;2023-07-31T07:50:39;96567.09;;;19.57;73.44
57232;BME280;43488;46.934;8.276;2023-07-31T07:53:08;96569.22;;;19.65;72.99
57232;BME280;43488;46.934;8.276;2023-07-31T07:55:35;96572.47;;;19.67;71.84
57232;BME280;43488;46.934;8.276;2023-07-31T07:58:02;96562.28;;;19.59;70.88
57232;BME280;43488;46.934;8.276;2023-07-31T08:00:30;96559.34;;;19.60;72.92
57232;BME280;43488;46.934;8.276;2023-07-31T08:02:57;96563.66;;;19.67;76.28
57232;BME280;43488;46.934;8.276;2023-07-31T08:05:25;96568.22;;;19.76;75.43
57232;BME280;43488;46.934;8.276;2023-07-31T08:07:52;96570.38;;;19.89;75.34
57232;BME280;43488;46.934;8.276;2023-07-31T08:10:19;96569.03;;;20.02;75.55
57232;BME280;43488;46.934;8.276;2023-07-31T08:12:49;96568.75;;;19.88;71.66
57232;BME280;43488;46.934;8.276;2023-07-31T08:15:16;96570.41;;;20.05;73.50
57232;BME280;43488;46.934;8.276;2023-07-31T08:17:44;96576.28;;;20.17;74.24
57232;BME280;43488;46.934;8.276;2023-07-31T08:20:13;96576.28;;;20.27;74.26
57232;BME280;43488;46.934;8.276;2023-07-31T08:22:41;96573.34;;;20.34;73.00
57232;BME280;43488;46.934;8.276;2023-07-31T08:25:09;96581.09;;;20.40;71.79
57232;BME280;43488;46.934;8.276;2023-07-31T08:27:36;96574.69;;;20.47;71.79
57232;BME280;43488;46.934;8.276;2023-07-31T08:30:04;96567.47;;;20.42;71.30
57232;BME280;43488;46.934;8.276;2023-07-31T08:32:31;96575.78;;;20.51;70.21
57232;BME280;43488;46.934;8.276;2023-07-31T08:34:59;96574.97;;;20.50;69.23
57232;BME280;43488;46.934;8.276;2023-07-31T08:37:26;96567.22;;;20.43;67.98
57232;BME280;43488;46.934;8.276;2023-07-31T08:39:53;96576.84;;;20.50;69.07
57232;BME280;43488;46.934;8.276;2023-07-31T08:42:24;96569.34;;;20.67;69.53
57232;BME280;43488;46.934;8.276;2023-07-31T08:44:56;96573.06;;;20.66;69.19
57232;BME280;43488;46.934;8.276;2023-07-31T08:47:23;96555.69;;;20.73;69.98
57232;BME280;43488;46.934;8.276;2023-07-31T08:49:51;96565.03;;;20.81;70.90
57232;BME280;43488;46.934;8.276;2023-07-31T08:52:19;96569.34;;;20.72;69.24
57232;BME280;43488;46.934;8.276;2023-07-31T08:54:48;96559.66;;;20.91;67.77
57232;BME280;43488;46.934;8.276;2023-07-31T08:57:16;96554.81;;;20.98;65.42
57232;BME280;43488;46.934;8.276;2023-07-31T08:59:46;96553.19;;;21.02;65.95
57232;BME280;43488;46.934;8.276;2023-07-31T09:02:18;96548.88;;;21.12;64.53
57232;BME280;43488;46.934;8.276;2023-07-31T09:04:48;96548.88;;;21.22;65.32
57232;BME280;43488;46.934;8.276;2023-07-31T09:07:15;96551.84;;;21.10;64.95
57232;BME280;43488;46.934;8.276;2023-07-31T09:09:46;96534.41;;;21.18;63.72
57232;BME280;43488;46.934;8.276;2023-07-31T09:12:13;96543.53;;;21.22;65.18
57232;BME280;43488;46.934;8.276;2023-07-31T09:14:43;96542.44;;;21.18;66.21
57232;BME280;43488;46.934;8.276;2023-07-31T09:17:12;96532.53;;;21.28;66.42
57232;BME280;43488;46.934;8.276;2023-07-31T09:19:40;96523.16;;;21.31;64.21
57232;BME280;43488;46.934;8.276;2023-07-31T09:22:07;96522.41;;;21.70;64.81
57232;BME280;43488;46.934;8.276;2023-07-31T09:24:35;96519.09;;;21.88;64.99
57232;BME280;43488;46.934;8.276;2023-07-31T09:27:03;96515.00;;;21.96;64.49
57232;BME280;43488;46.934;8.276;2023-07-31T09:29:30;96510.25;;;21.88;61.74
57232;BME280;43488;46.934;8.276;2023-07-31T09:31:58;96504.53;;;21.94;61.44
57232;BME280;43488;46.934;8.276;2023-07-31T09:34:37;96506.38;;;22.04;62.23
57232;BME280;43488;46.934;8.276;2023-07-31T09:37:08;96499.31;;;22.18;60.90
57232;BME280;43488;46.934;8.276;2023-07-31T09:39:47;96500.91;;;22.19;63.86
57232;BME280;43488;46.934;8.276;2023-07-31T09:42:26;96497.41;;;22.19;59.10
57232;BME280;43488;46.934;8.276;2023-07-31T09:45:10;96487.28;;;22.16;58.70
57232;BME280;43488;46.934;8.276;2023-07-31T09:47:37;96485.38;;;22.16;58.68
57232;BME280;43488;46.934;8.276;2023-07-31T09:50:08;96496.31;;;22.25;61.59
57232;BME280;43488;46.934;8.276;2023-07-31T09:52:38;96491.41;;;22.32;59.37
57232;BME280;43488;46.934;8.276;2023-07-31T09:55:06;96489.47;;;22.37;58.93
57232;BME280;43488;46.934;8.276;2023-07-31T09:57:34;96478.72;;;22.42;59.37
57232;BME280;43488;46.934;8.276;2023-07-31T10:00:06;96469.75;;;22.52;61.46
57232;BME280;43488;46.934;8.276;2023-07-31T10:02:34;96463.94;;;22.45;63.13
57232;BME280;43488;46.934;8.276;2023-07-31T10:05:05;96464.91;;;22.54;63.46
57232;BME280;43488;46.934;8.276;2023-07-31T10:07:38;96461.97;;;22.27;63.05
57232;BME280;43488;46.934;8.276;2023-07-31T10:10:08;96462.25;;;22.25;61.58
57232;BME280;43488;46.934;8.276;2023-07-31T10:12:36;96462.06;;;22.17;62.96
57232;BME280;43488;46.934;8.276;2023-07-31T10:15:05;96460.47;;;22.16;64.43
57232;BME280;43488;46.934;8.276;2023-07-31T10:17:35;96452.34;;;22.21;64.25
57232;BME280;43488;46.934;8.276;2023-07-31T10:20:07;96442.19;;;22.18;64.47
57232;BME280;43488;46.934;8.276;2023-07-31T10:22:36;96437.59;;;22.23;63.06
57232;BME280;43488;46.934;8.276;2023-07-31T10:25:05;96444.59;;;22.19;63.65
57232;BME280;43488;46.934;8.276;2023-07-31T10:27:40;96443.09;;;22.37;62.30
57232;BME280;43488;46.934;8.276;2023-07-31T10:30:16;96437.41;;;22.43;62.48
57232;BME280;43488;46.934;8.276;2023-07-31T10:32:46;96432.03;;;22.43;64.76
57232;BME280;43488;46.934;8.276;2023-07-31T10:35:16;96427.81;;;22.61;61.39
57232;BME280;43488;46.934;8.276;2023-07-31T10:37:44;96423.75;;;22.64;64.54
57232;BME280;43488;46.934;8.276;2023-07-31T10:40:19;96420.19;;;22.50;61.17
57232;BME280;43488;46.934;8.276;2023-07-31T10:42:55;96408.25;;;22.61;61.34
57232;BME280;43488;46.934;8.276;2023-07-31T10:45:34;96414.69;;;22.60;61.10
57232;BME280;43488;46.934;8.276;2023-07-31T10:48:13;96416.31;;;22.80;61.34
57232;BME280;43488;46.934;8.276;2023-07-31T10:50:55;96409.91;;;22.76;59.63
57232;BME280;43488;46.934;8.276;2023-07-31T10:53:29;96403.47;;;22.77;60.60
57232;BME280;43488;46.934;8.276;2023-07-31T10:56:02;96401.50;;;22.87;61.45
57232;BME280;43488;46.934;8.276;2023-07-31T10:58:30;96407.81;;;22.73;60.49
57232;BME280;43488;46.934;8.276;2023-07-31T11:01:04;96405.00;;;22.83;60.25
57232;BME280;43488;46.934;8.276;2023-07-31T11:03:45;96405.00;;;22.88;61.23
57232;BME280;43488;46.934;8.276;2023-07-31T11:06:14;96392.06;;;22.90;61.22
57232;BME280;43488;46.934;8.276;2023-07-31T11:11:17;96387.06;;;23.02;63.29
57232;BME280;43488;46.934;8.276;2023-07-31T11:13:51;96388.09;;;23.06;62.21
57232;BME280;43488;46.934;8.276;2023-07-31T11:16:28;96379.91;;;23.16;59.82
57232;BME280;43488;46.934;8.276;2023-07-31T11:18:55;96367.28;;;23.17;61.36
57232;BME280;43488;46.934;8.276;2023-07-31T11:21:24;96370.03;;;23.12;61.66
57232;BME280;43488;46.934;8.276;2023-07-31T11:23:56;96361.47;;;23.10;60.46
57232;BME280;43488;46.934;8.276;2023-07-31T11:26:24;96365.53;;;23.26;58.64
57232;BME280;43488;46.934;8.276;2023-07-31T11:28:52;96364.94;;;23.29;59.09
57232;BME280;43488;46.934;8.276;2023-07-31T11:31:19;96355.63;;;23.40;58.51
57232;BME280;43488;46.934;8.276;2023-07-31T11:33:47;96355.09;;;23.57;58.25
57232;BME280;43488;46.934;8.276;2023-07-31T11:36:20;96354.91;;;23.53;58.38
57232;BME280;43488;46.934;8.276;2023-07-31T11:38:47;96355.75;;;23.49;59.01
57232;BME280;43488;46.934;8.276;2023-07-31T11:41:16;96356.16;;;23.61;58.40
57232;BME280;43488;46.934;8.276;2023-07-31T11:43:45;96349.97;;;23.61;59.77
57232;BME280;43488;46.934;8.276;2023-07-31T11:46:13;96337.41;;;23.89;58.18
57232;BME280;43488;46.934;8.276;2023-07-31T11:48:41;96339.59;;;23.87;57.43
57232;BME280;43488;46.934;8.276;2023-07-31T11:51:10;96337.91;;;23.91;57.70
57232;BME280;43488;46.934;8.276;2023-07-31T11:53:47;96344.00;;;24.10;58.51
57232;BME280;43488;46.934;8.276;2023-07-31T11:56:21;96341.59;;;24.22;56.98
57232;BME280;43488;46.934;8.276;2023-07-31T11:58:58;96333.53;;;24.22;59.00
57232;BME280;43488;46.934;8.276;2023-07-31T12:01:27;96332.38;;;24.15;56.42
57232;BME280;43488;46.934;8.276;2023-07-31T12:03:56;96327.06;;;24.09;56.72
57232;BME280;43488;46.934;8.276;2023-07-31T12:06:37;96328.34;;;24.12;56.68
57232;BME280;43488;46.934;8.276;2023-07-31T12:09:05;96315.94;;;24.16;58.34
57232;BME280;43488;46.934;8.276;2023-07-31T12:11:47;96315.50;;;24.23;56.58
57232;BME280;43488;46.934;8.276;2023-07-31T12:14:24;96310.34;;;24.26;57.28
57232;BME280;43488;46.934;8.276;2023-07-31T12:17:04;96308.06;;;24.06;56.66
57232;BME280;43488;46.934;8.276;2023-07-31T12:19:32;96303.69;;;24.24;56.77
57232;BME280;43488;46.934;8.276;2023-07-31T12:22:00;96302.19;;;24.31;58.01
57232;BME280;43488;46.934;8.276;2023-07-31T12:24:28;96307.53;;;24.04;56.25
57232;BME280;43488;46.934;8.276;2023-07-31T12:26:55;96304.75;;;23.95;55.86
57232;BME280;43488;46.934;8.276;2023-07-31T12:29:23;96304.47;;;23.97;56.70
57232;BME280;43488;46.934;8.276;2023-07-31T12:31:50;96304.88;;;24.31;57.65
57232;BME280;43488;46.934;8.276;2023-07-31T12:34:19;96300.09;;;24.56;55.94
57232;BME280;43488;46.934;8.276;2023-07-31T12:36:48;96293.94;;;24.78;54.96
57232;BME280;43488;46.934;8.276;2023-07-31T12:39:18;96293.75;;;24.88;52.74
57232;BME280;43488;46.934;8.276;2023-07-31T12:41:46;96294.22;;;24.90;55.05
57232;BME280;43488;46.934;8.276;2023-07-31T12:44:13;96298.56;;;25.13;54.18
57232;BME280;43488;46.934;8.276;2023-07-31T12:46:40;96288.56;;;25.14;53.98
57232;BME280;43488;46.934;8.276;2023-07-31T12:49:08;96290.69;;;25.17;53.43
57232;BME280;43488;46.934;8.276;2023-07-31T12:51:36;96282.22;;;25.10;54.34
57232;BME280;43488;46.934;8.276;2023-07-31T12:54:03;96280.81;;;25.12;53.27
57232;BME280;43488;46.934;8.276;2023-07-31T12:56:31;96274.69;;;25.20;52.74
57232;BME280;43488;46.934;8.276;2023-07-31T12:58:59;96274.19;;;25.41;54.27
57232;BME280;43488;46.934;8.276;2023-07-31T13:01:26;96267.63;;;25.56;52.90
57232;BME280;43488;46.934;8.276;2023-07-31T13:03:54;96265.75;;;25.34;52.26
57232;BME280;43488;46.934;8.276;2023-07-31T13:06:21;96261.94;;;25.57;53.24
57232;BME280;43488;46.934;8.276;2023-07-31T13:08:48;96259.19;;;25.71;51.69
57232;BME280;43488;46.934;8.276;2023-07-31T13:11:15;96251.28;;;25.52;51.17
57232;BME280;43488;46.934;8.276;2023-07-31T13:13:43;96250.94;;;25.76;50.43